Time;durP1;ratioP1;P1;durP2;ratioP2;P2;SDS_P1;SDS_P2;PMS_P1;PMS_P2;Temp;Humidity;BMP_temperature;BMP_pressure;BME280_temperature;BME280_humidity;BME280_pressure;Samples;Min_cycle;Max_cycle;Signal;HPM_P1;HPM_P2
2022/04/12 00:00:32;;;;;;;9.18;6.53;;;;;;;;;;5010771;28;20054;-82
2022/04/12 00:03:00;;;;;;;9.60;5.97;;;;;;;;;;5027646;28;20045;-82
2022/04/12 00:05:27;;;;;;;9.63;6.72;;;;;;;;;;5012160;28;20119;-81
2022/04/12 00:07:58;;;;;;;10.32;7.07;;;;;;;;;;5029694;28;20053;-82
2022/04/12 00:10:26;;;;;;;8.00;7.05;;;;;;;;;;5028477;28;20042;-82
2022/04/12 00:12:54;;;;;;;7.30;6.60;;;;;;;;;;5009067;28;20045;-83
2022/04/12 00:15:21;;;;;;;5.63;5.07;;;;;;;;;;5009322;28;20120;-82
2022/04/12 00:20:36;;;;;;;3.80;3.50;;;;;;;;;;5021789;28;20041;-82
2022/04/12 00:23:04;;;;;;;4.50;4.10;;;;;;;;;;5032078;28;20056;-82
2022/04/12 00:25:32;;;;;;;3.70;3.40;;;;;;;;;;5032037;28;20072;-82
2022/04/12 00:27:59;;;;;;;5.07;4.32;;;;;;;;;;5014561;28;20161;-82
2022/04/12 00:30:28;;;;;;;5.10;4.65;;;;;;;;;;5030828;28;20041;-82
2022/04/12 00:32:56;;;;;;;4.60;4.20;;;;;;;;;;5033932;28;20048;-82
2022/04/12 00:35:24;;;;;;;5.22;4.72;;;;;;;;;;5032721;28;20099;-82
2022/04/12 00:37:51;;;;;;;7.30;5.80;;;;;;;;;;5033298;28;20684;-82
2022/04/12 00:40:19;;;;;;;5.25;4.75;;;;;;;;;;5034853;28;20060;-83
2022/04/12 00:42:47;;;;;;;4.15;3.85;;;;;;;;;;5016871;28;20124;-82
2022/04/12 00:45:14;;;;;;;3.38;3.10;;;;;;;;;;5029610;28;20053;-83
2022/04/12 00:47:42;;;;;;;3.53;3.20;;;;;;;;;;5034403;28;20068;-83
2022/04/12 00:50:10;;;;;;;3.35;3.03;;;;;;;;;;5001791;28;20049;-82
2022/04/12 00:52:49;;;;;;;3.80;3.50;;;;;;;;;;5035147;28;20489;-83
2022/04/12 00:55:17;;;;;;;4.70;4.28;;;;;;;;;;5018716;28;20429;-82
2022/04/12 00:57:44;;;;;;;4.55;4.15;;;;;;;;;;5034942;28;20501;-82
2022/04/12 01:00:13;;;;;;;4.05;3.63;;;;;;;;;;5016441;28;20513;-82
2022/04/12 01:02:40;;;;;;;3.25;2.90;;;;;;;;;;5016707;28;20138;-83
2022/04/12 01:05:08;;;;;;;3.50;3.20;;;;;;;;;;5033085;28;20037;-82
2022/04/12 01:07:36;;;;;;;4.85;3.80;;;;;;;;;;5034588;28;20042;-83
2022/04/12 01:10:04;;;;;;;3.33;2.97;;;;;;;;;;5000918;28;20073;-82
2022/04/12 01:12:38;;;;;;;3.58;3.00;;;;;;;;;;5034953;28;20621;-83
2022/04/12 01:15:12;;;;;;;3.30;3.03;;;;;;;;;;5034430;28;20060;-83
2022/04/12 01:17:39;;;;;;;2.83;2.53;;;;;;;;;;5016825;28;20064;-83
2022/04/12 01:20:07;;;;;;;3.25;2.90;;;;;;;;;;5033045;28;20754;-83
2022/04/12 01:22:35;;;;;;;3.40;3.10;;;;;;;;;;5033047;28;20505;-83
2022/04/12 01:25:02;;;;;;;3.88;3.47;;;;;;;;;;5033323;28;20053;-83
2022/04/12 01:27:30;;;;;;;3.17;2.97;;;;;;;;;;5032885;28;20128;-83
2022/04/12 01:29:58;;;;;;;3.65;3.35;;;;;;;;;;5033738;28;20045;-83
2022/04/12 01:32:25;;;;;;;6.70;3.22;;;;;;;;;;5033746;28;20049;-83
2022/04/12 01:34:52;;;;;;;2.78;2.58;;;;;;;;;;5000137;28;20045;-83
2022/04/12 01:37:20;;;;;;;3.83;3.53;;;;;;;;;;5013898;28;20046;-83
2022/04/12 01:39:47;;;;;;;3.13;2.90;;;;;;;;;;5031384;28;20045;-83
2022/04/12 01:42:14;;;;;;;3.58;3.28;;;;;;;;;;5031806;28;20060;-83
2022/04/12 01:44:42;;;;;;;3.65;3.35;;;;;;;;;;5031875;28;20465;-82
2022/04/12 01:47:09;;;;;;;2.90;2.70;;;;;;;;;;5029995;28;20520;-82
2022/04/12 01:49:36;;;;;;;3.10;2.80;;;;;;;;;;5013831;28;20114;-82
2022/04/12 01:52:04;;;;;;;3.83;2.90;;;;;;;;;;5013298;28;20409;-83
2022/04/12 01:54:31;;;;;;;3.47;3.17;;;;;;;;;;5030831;28;20064;-82
2022/04/12 01:56:58;;;;;;;4.22;3.15;;;;;;;;;;5012834;28;20041;-83
2022/04/12 01:59:26;;;;;;;2.55;2.35;;;;;;;;;;5013373;28;20056;-82
2022/04/12 02:01:53;;;;;;;3.67;3.20;;;;;;;;;;5030761;28;20048;-82
2022/04/12 02:04:21;;;;;;;3.42;3.03;;;;;;;;;;5030662;28;20695;-83
2022/04/12 02:06:48;;;;;;;3.83;2.70;;;;;;;;;;5031133;28;20048;-82
2022/04/12 02:09:15;;;;;;;3.20;2.88;;;;;;;;;;5031402;28;20045;-82
2022/04/12 02:11:42;;;;;;;4.15;3.65;;;;;;;;;;5030899;28;20045;-82
2022/04/12 02:14:10;;;;;;;3.53;3.10;;;;;;;;;;5030396;28;20103;-83
2022/04/12 02:16:37;;;;;;;2.88;2.67;;;;;;;;;;5013209;28;20417;-82
2022/04/12 02:19:05;;;;;;;3.10;2.80;;;;;;;;;;5029999;28;20049;-82
2022/04/12 02:21:32;;;;;;;4.25;3.10;;;;;;;;;;5013483;28;20731;-82
2022/04/12 02:23:59;;;;;;;3.30;3.00;;;;;;;;;;5012912;28;20049;-83
2022/04/12 02:26:27;;;;;;;3.80;3.45;;;;;;;;;;5029758;28;20056;-82
2022/04/12 02:28:54;;;;;;;3.45;2.90;;;;;;;;;;5029954;28;20087;-82
2022/04/12 02:31:21;;;;;;;2.70;2.30;;;;;;;;;;5013534;28;20041;-82
2022/04/12 02:33:49;;;;;;;2.95;2.75;;;;;;;;;;5030207;28;20096;-82
2022/04/12 02:36:16;;;;;;;3.78;3.33;;;;;;;;;;5031691;28;20109;-82
2022/04/12 02:38:43;;;;;;;4.70;2.80;;;;;;;;;;5031939;28;20123;-83
2022/04/12 02:41:10;;;;;;;3.42;2.90;;;;;;;;;;5014893;28;20057;-83
2022/04/12 02:43:38;;;;;;;7.40;3.05;;;;;;;;;;5031737;28;20456;-83
2022/04/12 02:46:05;;;;;;;2.95;2.75;;;;;;;;;;5030714;28;20084;-82
2022/04/12 02:48:33;;;;;;;3.45;3.00;;;;;;;;;;5032180;28;20053;-82
2022/04/12 02:51:00;;;;;;;3.50;3.00;;;;;;;;;;5013633;28;20050;-82
2022/04/12 02:53:27;;;;;;;3.17;2.85;;;;;;;;;;5013740;28;20045;-82
2022/04/12 02:55:55;;;;;;;3.28;3.00;;;;;;;;;;5030932;28;20060;-82
2022/04/12 02:58:22;;;;;;;4.15;3.75;;;;;;;;;;5029590;28;20049;-82
2022/04/12 03:00:49;;;;;;;5.10;4.38;;;;;;;;;;5014241;28;20050;-82
2022/04/12 03:03:17;;;;;;;4.78;3.05;;;;;;;;;;5031418;28;20086;-82
2022/04/12 03:05:44;;;;;;;2.78;2.58;;;;;;;;;;5032703;28;20112;-82
2022/04/12 03:08:11;;;;;;;3.03;2.83;;;;;;;;;;5031920;28;20053;-82
2022/04/12 03:10:39;;;;;;;5.72;3.72;;;;;;;;;;5031301;28;20634;-83
2022/04/12 03:13:06;;;;;;;4.05;3.25;;;;;;;;;;5031537;28;20493;-82
2022/04/12 03:15:34;;;;;;;3.10;2.90;;;;;;;;;;5030239;28;20543;-83
2022/04/12 03:18:01;;;;;;;5.30;3.55;;;;;;;;;;5030922;28;20049;-82
2022/04/12 03:20:28;;;;;;;4.00;3.67;;;;;;;;;;5013483;28;20049;-82
2022/04/12 03:22:56;;;;;;;6.43;3.42;;;;;;;;;;5031298;28;20045;-82
2022/04/12 03:25:23;;;;;;;4.60;3.42;;;;;;;;;;5030479;28;20045;-82
2022/04/12 03:27:50;;;;;;;4.38;3.42;;;;;;;;;;5013678;28;20049;-81
2022/04/12 03:30:18;;;;;;;5.53;3.85;;;;;;;;;;5030175;28;20052;-81
2022/04/12 03:32:45;;;;;;;4.60;3.45;;;;;;;;;;5030055;28;20547;-82
2022/04/12 03:35:13;;;;;;;4.82;3.35;;;;;;;;;;5013027;28;20076;-82
2022/04/12 03:37:40;;;;;;;3.80;3.28;;;;;;;;;;5011763;28;20513;-82
2022/04/12 03:40:07;;;;;;;3.45;3.05;;;;;;;;;;5031789;28;20037;-83
2022/04/12 03:42:35;;;;;;;3.80;3.50;;;;;;;;;;5016165;28;20060;-82
2022/04/12 03:45:02;;;;;;;4.88;3.80;;;;;;;;;;5029626;28;20054;-82
2022/04/12 03:47:29;;;;;;;3.85;3.47;;;;;;;;;;5033101;28;20072;-82
2022/04/12 03:49:57;;;;;;;3.88;3.58;;;;;;;;;;5034596;28;20110;-82
2022/04/12 03:52:24;;;;;;;5.07;3.28;;;;;;;;;;5033978;28;20080;-82
2022/04/12 03:54:51;;;;;;;4.47;4.03;;;;;;;;;;5034787;28;20038;-82
2022/04/12 03:57:19;;;;;;;5.30;4.80;;;;;;;;;;5033928;28;20505;-82
2022/04/12 03:59:46;;;;;;;5.82;5.10;;;;;;;;;;5033758;28;20061;-82
2022/04/12 04:02:13;;;;;;;7.32;6.53;;;;;;;;;;5018919;28;20088;-82
2022/04/12 04:04:40;;;;;;;8.27;7.32;;;;;;;;;;5003231;28;20088;-82
2022/04/12 04:07:08;;;;;;;9.20;7.50;;;;;;;;;;5019906;28;20049;-82
2022/04/12 04:09:35;;;;;;;6.82;5.85;;;;;;;;;;5037916;28;20045;-81
2022/04/12 04:12:03;;;;;;;5.75;5.15;;;;;;;;;;5038137;28;20042;-80
2022/04/12 04:14:34;;;;;;;4.55;3.97;;;;;;;;;;5005027;28;20120;-81
2022/04/12 04:17:01;;;;;;;6.82;4.97;;;;;;;;;;5038855;28;20524;-81
2022/04/12 04:19:29;;;;;;;3.97;3.60;;;;;;;;;;5020996;28;20041;-81
2022/04/12 04:21:56;;;;;;;4.72;4.32;;;;;;;;;;5021452;28;20041;-81
2022/04/12 04:24:24;;;;;;;4.60;4.15;;;;;;;;;;5039749;28;20072;-81
2022/04/12 04:26:55;;;;;;;4.55;4.13;;;;;;;;;;5036932;28;20048;-82
2022/04/12 04:29:33;;;;;;;7.60;6.68;;;;;;;;;;5038482;28;20052;-81
2022/04/12 04:32:00;;;;;;;7.50;6.22;;;;;;;;;;5038102;28;20136;-81
2022/04/12 04:34:27;;;;;;;10.93;7.45;;;;;;;;;;5038326;28;20041;-81
2022/04/12 04:36:55;;;;;;;5.53;4.90;;;;;;;;;;5037507;28;20048;-81
2022/04/12 04:39:22;;;;;;;5.85;4.82;;;;;;;;;;5038296;28;20045;-81
2022/04/12 04:41:50;;;;;;;6.72;4.60;;;;;;;;;;5039535;28;20045;-86
2022/04/12 04:44:17;;;;;;;8.00;5.70;;;;;;;;;;5016151;28;20049;-82
2022/04/12 04:46:44;;;;;;;8.65;5.80;;;;;;;;;;5033195;28;20050;-81
2022/04/12 04:49:12;;;;;;;8.18;6.38;;;;;;;;;;5034475;28;20045;-82
2022/04/12 04:51:41;;;;;;;8.10;7.03;;;;;;;;;;5033333;28;20501;-82
2022/04/12 04:54:08;;;;;;;6.22;5.18;;;;;;;;;;5034716;28;20567;-82
2022/04/12 04:56:36;;;;;;;6.15;5.50;;;;;;;;;;5036225;28;20484;-81
2022/04/12 04:59:03;;;;;;;7.20;6.50;;;;;;;;;;5015274;28;20045;-82
2022/04/12 05:01:30;;;;;;;9.30;7.55;;;;;;;;;;5006294;28;20112;-81
2022/04/12 05:03:58;;;;;;;8.07;7.18;;;;;;;;;;5030791;28;20120;-81
2022/04/12 05:06:25;;;;;;;5.18;4.78;;;;;;;;;;5023616;28;20137;-81
2022/04/12 05:08:52;;;;;;;6.28;5.68;;;;;;;;;;5036859;28;20049;-80
2022/04/12 05:11:20;;;;;;;5.78;5.20;;;;;;;;;;5018591;28;20041;-83
2022/04/12 05:13:47;;;;;;;8.55;5.03;;;;;;;;;;5016944;28;20041;-82
2022/04/12 05:16:14;;;;;;;5.15;4.65;;;;;;;;;;5002045;28;20047;-83
2022/04/12 05:18:42;;;;;;;5.15;4.75;;;;;;;;;;5035112;28;20069;-83
2022/04/12 05:21:13;;;;;;;5.70;5.20;;;;;;;;;;5018652;28;20057;-82
2022/04/12 05:23:41;;;;;;;4.38;3.95;;;;;;;;;;5039606;28;20087;-81
2022/04/12 05:26:12;;;;;;;4.93;3.90;;;;;;;;;;5038165;28;20048;-83
2022/04/12 05:28:48;;;;;;;5.75;5.10;;;;;;;;;;5040928;28;20124;-82
2022/04/12 05:31:39;;;;;;;7.22;5.10;;;;;;;;;;5008548;28;20049;-83
2022/04/12 05:34:06;;;;;;;7.20;6.13;;;;;;;;;;5005047;28;20496;-83
2022/04/12 05:36:36;;;;;;;6.95;6.20;;;;;;;;;;5036527;28;20058;-82
2022/04/12 05:39:07;;;;;;;9.68;8.38;;;;;;;;;;5037922;28;20041;-83
2022/04/12 05:41:37;;;;;;;9.60;8.13;;;;;;;;;;5040146;28;20037;-82
2022/04/12 05:44:06;;;;;;;7.57;6.70;;;;;;;;;;5019243;28;20045;-82
2022/04/12 05:46:36;;;;;;;5.55;4.95;;;;;;;;;;5019484;28;20076;-83
2022/04/12 05:49:05;;;;;;;6.93;5.30;;;;;;;;;;5007759;23;20100;-86
2022/04/12 05:51:35;;;;;;;5.28;4.78;;;;;;;;;;4996030;28;20514;-82
2022/04/12 05:54:03;;;;;;;6.72;5.57;;;;;;;;;;5010137;28;20414;-82
2022/04/12 05:56:30;;;;;;;5.85;5.35;;;;;;;;;;5022738;28;20061;-79
2022/04/12 05:58:58;;;;;;;7.35;6.20;;;;;;;;;;4980792;28;20145;-81
2022/04/12 06:01:26;;;;;;;14.85;10.48;;;;;;;;;;4986778;28;20046;-76
2022/04/12 06:03:54;;;;;;;7.07;5.30;;;;;;;;;;4994099;28;20046;-85
2022/04/12 06:06:21;;;;;;;8.82;7.38;;;;;;;;;;4993517;28;20058;-79
2022/04/12 06:08:48;;;;;;;7.65;6.43;;;;;;;;;;5011218;28;20505;-80
2022/04/12 06:11:16;;;;;;;7.82;7.03;;;;;;;;;;5002120;28;20136;-79
2022/04/12 06:13:43;;;;;;;18.65;13.15;;;;;;;;;;5005357;28;20490;-79
2022/04/12 06:16:11;;;;;;;54.72;39.63;;;;;;;;;;4974667;28;20136;-79
2022/04/12 06:18:39;;;;;;;19.83;14.15;;;;;;;;;;4971976;28;20522;-77
2022/04/12 06:21:07;;;;;;;10.93;8.70;;;;;;;;;;4967502;28;20053;-80
2022/04/12 06:23:35;;;;;;;7.50;5.78;;;;;;;;;;5011976;28;20092;-84
2022/04/12 06:26:07;;;;;;;5.88;4.88;;;;;;;;;;4973494;28;20053;-83
2022/04/12 06:28:34;;;;;;;7.13;5.65;;;;;;;;;;4972718;28;20694;-79
2022/04/12 06:31:02;;;;;;;6.13;5.53;;;;;;;;;;5007853;28;20069;-83
2022/04/12 06:33:30;;;;;;;6.47;5.38;;;;;;;;;;5005411;28;20030;-80
2022/04/12 06:35:57;;;;;;;4.47;4.07;;;;;;;;;;4972586;28;20057;-78
2022/04/12 06:38:31;;;;;;;5.15;3.50;;;;;;;;;;4975143;28;20046;-80
2022/04/12 06:40:58;;;;;;;3.65;3.35;;;;;;;;;;4990654;28;20061;-84
2022/04/12 06:43:25;;;;;;;6.45;4.00;;;;;;;;;;4992278;28;20096;-77
2022/04/12 06:45:53;;;;;;;4.15;3.85;;;;;;;;;;4980688;28;20065;-78
2022/04/12 06:48:23;;;;;;;5.50;3.42;;;;;;;;;;4991829;28;20053;-84
2022/04/12 06:50:50;;;;;;;3.63;3.17;;;;;;;;;;4991271;28;20505;-76
2022/04/12 06:53:17;;;;;;;4.72;3.88;;;;;;;;;;5003985;28;20045;-78
2022/04/12 06:55:45;;;;;;;4.13;3.70;;;;;;;;;;4987542;28;20064;-81
2022/04/12 06:58:12;;;;;;;4.82;4.32;;;;;;;;;;4982385;28;20117;-77
2022/04/12 07:00:40;;;;;;;4.10;3.70;;;;;;;;;;4978699;28;20056;-79
2022/04/12 07:03:07;;;;;;;4.53;3.63;;;;;;;;;;4982758;28;20053;-79
2022/04/12 07:05:35;;;;;;;6.40;4.20;;;;;;;;;;4976286;28;20535;-81
2022/04/12 07:08:02;;;;;;;4.00;3.67;;;;;;;;;;4974227;28;20287;-78
2022/04/12 07:10:30;;;;;;;5.32;3.85;;;;;;;;;;4990112;28;20069;-82
2022/04/12 07:12:57;;;;;;;4.63;3.33;;;;;;;;;;4989095;28;20076;-79
2022/04/12 07:15:25;;;;;;;3.90;3.60;;;;;;;;;;4989354;28;20050;-80
2022/04/12 07:17:52;;;;;;;6.72;4.22;;;;;;;;;;5007423;28;20042;-81
2022/04/12 07:20:20;;;;;;;4.10;3.78;;;;;;;;;;4959217;28;20470;-79
2022/04/12 07:22:48;;;;;;;6.63;3.63;;;;;;;;;;4991555;28;20052;-78
2022/04/12 07:25:17;;;;;;;4.75;4.18;;;;;;;;;;4991593;28;20049;-78
2022/04/12 07:27:44;;;;;;;6.55;4.90;;;;;;;;;;4994071;28;20459;-77
2022/04/12 07:30:12;;;;;;;6.88;3.35;;;;;;;;;;4975062;28;20121;-81
2022/04/12 07:32:57;;;;;;;4.00;2.70;;;;;;;;;;4975841;28;20041;-83
2022/04/12 07:35:27;;;;;;;3.30;3.00;;;;;;;;;;4975117;28;20128;-77
2022/04/12 07:37:54;;;;;;;2.92;2.72;;;;;;;;;;4973678;28;20042;-78
2022/04/12 07:40:22;;;;;;;3.70;2.65;;;;;;;;;;4990571;28;20089;-79
2022/04/12 07:42:49;;;;;;;3.25;2.33;;;;;;;;;;4990922;28;20129;-77
2022/04/12 07:45:17;;;;;;;3.35;2.70;;;;;;;;;;4992730;28;20118;-78
2022/04/12 07:47:44;;;;;;;3.47;3.15;;;;;;;;;;4991207;28;20048;-83
2022/04/12 07:50:13;;;;;;;3.10;2.72;;;;;;;;;;4973477;28;20145;-79
2022/04/12 07:52:41;;;;;;;4.43;2.60;;;;;;;;;;4989866;28;20413;-81
2022/04/12 07:55:08;;;;;;;3.70;2.13;;;;;;;;;;4989118;28;20041;-81
2022/04/12 07:57:36;;;;;;;3.22;2.30;;;;;;;;;;5008458;28;20049;-78
2022/04/12 08:00:04;;;;;;;5.40;2.08;;;;;;;;;;4957400;28;20163;-79
2022/04/12 08:02:38;;;;;;;3.97;2.30;;;;;;;;;;5006268;28;20041;-78
2022/04/12 08:05:06;;;;;;;3.38;2.13;;;;;;;;;;4974786;28;20124;-80
2022/04/12 08:07:33;;;;;;;2.38;2.17;;;;;;;;;;4976695;28;20137;-81
2022/04/12 08:10:01;;;;;;;2.45;2.25;;;;;;;;;;5005566;28;20084;-77
2022/04/12 08:12:28;;;;;;;9.48;2.63;;;;;;;;;;4991707;28;20038;-80
2022/04/12 08:14:55;;;;;;;2.55;2.10;;;;;;;;;;5005541;28;20095;-81
2022/04/12 08:17:23;;;;;;;2.85;2.03;;;;;;;;;;4972748;28;20058;-79
2022/04/12 08:19:50;;;;;;;3.35;2.20;;;;;;;;;;4973708;28;20399;-82
2022/04/12 08:22:18;;;;;;;3.47;2.40;;;;;;;;;;4973830;28;20056;-79
2022/04/12 08:25:05;;;;;;;3.58;2.53;;;;;;;;;;4972873;28;20148;-78
2022/04/12 08:27:33;;;;;;;3.63;2.58;;;;;;;;;;4990071;28;20053;-79
2022/04/12 08:30:02;;;;;;;2.30;2.10;;;;;;;;;;4991256;28;20041;-78
2022/04/12 08:32:29;;;;;;;2.40;2.20;;;;;;;;;;4959939;28;20050;-80
2022/04/12 08:34:58;;;;;;;5.63;3.55;;;;;;;;;;5011565;28;20038;-78
2022/04/12 08:37:25;;;;;;;4.30;3.13;;;;;;;;;;4984912;28;20037;-81
2022/04/12 08:39:53;;;;;;;4.68;2.13;;;;;;;;;;4973952;28;20132;-80
2022/04/12 08:42:21;;;;;;;2.88;2.13;;;;;;;;;;5024035;28;20084;-76
2022/04/12 08:44:49;;;;;;;5.53;2.30;;;;;;;;;;5005115;28;20057;-81
2022/04/12 08:47:18;;;;;;;2.50;2.28;;;;;;;;;;4996541;28;20052;-77
2022/04/12 08:49:46;;;;;;;3.78;2.00;;;;;;;;;;4958795;28;20050;-81
2022/04/12 08:52:14;;;;;;;2.45;1.95;;;;;;;;;;4988986;28;20042;-80
2022/04/12 08:54:43;;;;;;;4.28;2.83;;;;;;;;;;4991676;28;20042;-78
2022/04/12 08:57:11;;;;;;;2.55;2.35;;;;;;;;;;4976133;28;20045;-77
2022/04/12 08:59:41;;;;;;;4.47;2.40;;;;;;;;;;4971627;28;20516;-80
2022/04/12 09:02:09;;;;;;;2.67;2.20;;;;;;;;;;4960154;28;20395;-76
2022/04/12 09:04:37;;;;;;;2.03;1.70;;;;;;;;;;4974430;28;20046;-75
2022/04/12 09:07:08;;;;;;;3.90;2.03;;;;;;;;;;4990212;28;20414;-78
2022/04/12 09:09:37;;;;;;;2.67;2.00;;;;;;;;;;4991374;28;20731;-78
2022/04/12 09:12:06;;;;;;;2.40;1.65;;;;;;;;;;5005842;28;20046;-79
2022/04/12 09:14:44;;;;;;;3.90;1.60;;;;;;;;;;4994324;28;20053;-76
2022/04/12 09:17:12;;;;;;;1.60;1.13;;;;;;;;;;5010009;28;20091;-77
2022/04/12 09:19:48;;;;;;;1.40;1.30;;;;;;;;;;4994331;28;20042;-83
2022/04/12 09:22:20;;;;;;;2.45;1.50;;;;;;;;;;5010523;28;20054;-81
2022/04/12 09:24:52;;;;;;;2.80;2.45;;;;;;;;;;5008687;28;20060;-77
2022/04/12 09:27:23;;;;;;;3.65;1.40;;;;;;;;;;5011454;28;20115;-81
2022/04/12 09:29:51;;;;;;;;;;;;;;;;;;5011281;28;20136;-79
2022/04/12 09:32:22;;;;;;;1.25;1.00;;;;;;;;;;5009917;28;19927;-78
2022/04/12 09:34:50;;;;;;;0.88;0.80;;;;;;;;;;4974342;28;20108;-80
2022/04/12 09:37:19;;;;;;;0.80;0.80;;;;;;;;;;5009973;28;20041;-79
2022/04/12 09:40:03;;;;;;;3.45;1.13;;;;;;;;;;4981095;28;20042;-82
2022/04/12 09:42:37;;;;;;;1.23;0.77;;;;;;;;;;4989435;28;20044;-82
2022/04/12 09:45:05;;;;;;;2.38;1.60;;;;;;;;;;4983229;28;20540;-79
2022/04/12 09:48:04;;;;;;;0.75;0.70;;;;;;;;;;4952797;28;20099;-78
2022/04/12 09:50:51;;;;;;;;;;;;;;;;;;4976467;28;20057;-79
2022/04/12 09:53:19;;;;;;;1.05;0.73;;;;;;;;;;5008028;28;19922;-78
2022/04/12 09:55:49;;;;;;;0.70;0.60;;;;;;;;;;5012380;28;20052;-78
2022/04/12 09:58:17;;;;;;;2.75;0.85;;;;;;;;;;4987442;28;20046;-79
2022/04/12 10:00:47;;;;;;;0.75;0.75;;;;;;;;;;4980976;28;20132;-78
2022/04/12 10:03:16;;;;;;;1.38;0.50;;;;;;;;;;5006467;28;20576;-78
2022/04/12 10:05:44;;;;;;;0.77;0.60;;;;;;;;;;5006408;28;20069;-79
2022/04/12 10:08:13;;;;;;;0.95;0.95;;;;;;;;;;5006931;28;20447;-79
2022/04/12 10:10:42;;;;;;;1.40;0.80;;;;;;;;;;4993950;28;20512;-78
2022/04/12 10:13:10;;;;;;;0.93;0.60;;;;;;;;;;5002711;28;20222;-78
2022/04/12 10:15:38;;;;;;;0.73;0.60;;;;;;;;;;5005146;28;20121;-78
2022/04/12 10:18:05;;;;;;;1.23;0.80;;;;;;;;;;4994600;28;20422;-78
2022/04/12 10:20:33;;;;;;;1.80;0.88;;;;;;;;;;4976985;28;20042;-79
2022/04/12 10:23:01;;;;;;;0.85;0.80;;;;;;;;;;4998743;28;20137;-77
2022/04/12 10:25:29;;;;;;;0.93;0.55;;;;;;;;;;4998325;28;20046;-79
2022/04/12 10:27:57;;;;;;;0.85;0.80;;;;;;;;;;4992467;28;20144;-78
2022/04/12 10:30:26;;;;;;;0.80;0.65;;;;;;;;;;4990411;28;20050;-78
2022/04/12 10:33:00;;;;;;;2.33;0.70;;;;;;;;;;4976997;28;20041;-79
2022/04/12 10:35:55;;;;;;;1.08;0.80;;;;;;;;;;4991325;28;20053;-78
2022/04/12 10:38:23;;;;;;;1.13;0.60;;;;;;;;;;4975565;28;20635;-79
2022/04/12 10:40:52;;;;;;;2.00;0.70;;;;;;;;;;4997090;28;20050;-78
2022/04/12 10:43:23;;;;;;;1.30;0.80;;;;;;;;;;4993063;28;20042;-78
2022/04/12 10:45:52;;;;;;;0.70;0.60;;;;;;;;;;4991804;28;20042;-78
2022/04/12 10:48:28;;;;;;;2.38;0.70;;;;;;;;;;4996744;28;20052;-78
2022/04/12 10:50:56;;;;;;;0.63;0.60;;;;;;;;;;4991901;28;20064;-79
2022/04/12 10:53:39;;;;;;;1.02;0.70;;;;;;;;;;4976881;28;20387;-79
2022/04/12 10:56:09;;;;;;;1.20;1.10;;;;;;;;;;4996252;28;20049;-79
2022/04/12 10:58:37;;;;;;;0.90;0.80;;;;;;;;;;4988102;28;20069;-78
2022/04/12 11:01:05;;;;;;;0.75;0.52;;;;;;;;;;4993678;28;20046;-79
2022/04/12 11:03:43;;;;;;;0.98;0.60;;;;;;;;;;4973860;28;20498;-78
2022/04/12 11:06:12;;;;;;;1.20;0.60;;;;;;;;;;4988597;28;20925;-79
2022/04/12 11:08:43;;;;;;;0.88;0.68;;;;;;;;;;4995726;28;20041;-78
2022/04/12 11:11:17;;;;;;;0.40;0.40;;;;;;;;;;4995140;28;20251;-80
2022/04/12 11:13:46;;;;;;;0.55;0.55;;;;;;;;;;4975686;28;20055;-79
2022/04/12 11:16:17;;;;;;;2.85;1.13;;;;;;;;;;4997640;28;20081;-79
2022/04/12 11:18:49;;;;;;;1.60;0.80;;;;;;;;;;4962520;28;20050;-79
2022/04/12 11:21:17;;;;;;;0.70;0.70;;;;;;;;;;4989972;28;20146;-77
2022/04/12 11:23:46;;;;;;;1.02;0.80;;;;;;;;;;4995222;28;20517;-78
2022/04/12 11:26:35;;;;;;;1.45;0.60;;;;;;;;;;4987060;28;20049;-78
2022/04/12 11:29:07;;;;;;;0.57;0.57;;;;;;;;;;4978548;28;20049;-80
2022/04/12 11:31:36;;;;;;;;;;;;;;;;;;4965306;28;20343;-78
2022/04/12 11:34:06;;;;;;;1.63;0.60;;;;;;;;;;4977450;28;19929;-79
2022/04/12 11:36:34;;;;;;;0.85;0.65;;;;;;;;;;4973775;28;20054;-78
2022/04/12 11:39:01;;;;;;;1.40;0.60;;;;;;;;;;4992990;28;20052;-78
2022/04/12 11:41:29;;;;;;;0.68;0.68;;;;;;;;;;4975739;28;20045;-81
2022/04/12 11:44:04;;;;;;;0.60;0.60;;;;;;;;;;4974188;28;20149;-78
2022/04/12 11:46:32;;;;;;;0.68;0.60;;;;;;;;;;4975884;28;20050;-78
2022/04/12 11:49:06;;;;;;;0.57;0.52;;;;;;;;;;4999411;28;20390;-79
2022/04/12 11:51:51;;;;;;;0.77;0.77;;;;;;;;;;4994775;28;20042;-78
2022/04/12 11:54:19;;;;;;;2.15;0.88;;;;;;;;;;4989031;28;20125;-78
2022/04/12 11:56:52;;;;;;;0.85;0.75;;;;;;;;;;4997763;28;20054;-78
2022/04/12 11:59:19;;;;;;;1.67;0.63;;;;;;;;;;4970715;28;21174;-79
2022/04/12 12:01:47;;;;;;;2.00;0.75;;;;;;;;;;4975784;28;20125;-78
2022/04/12 12:04:28;;;;;;;1.15;0.85;;;;;;;;;;4993830;28;20038;-79
2022/04/12 12:07:07;;;;;;;0.80;0.80;;;;;;;;;;4996525;28;20559;-78
2022/04/12 12:09:50;;;;;;;0.90;0.70;;;;;;;;;;4996160;28;20211;-78
2022/04/12 12:12:18;;;;;;;0.93;0.80;;;;;;;;;;4990323;28;20080;-78
2022/04/12 12:14:45;;;;;;;1.58;0.98;;;;;;;;;;4993202;28;20903;-78
2022/04/12 12:17:20;;;;;;;0.80;0.80;;;;;;;;;;4978362;28;20115;-78
2022/04/12 12:19:48;;;;;;;1.52;0.82;;;;;;;;;;4966663;28;20116;-78
2022/04/12 12:22:16;;;;;;;1.83;0.93;;;;;;;;;;4978157;28;20375;-81
2022/04/12 12:24:54;;;;;;;0.68;0.68;;;;;;;;;;4996751;28;20530;-78
2022/04/12 12:27:33;;;;;;;2.92;0.98;;;;;;;;;;4996604;28;20482;-79
2022/04/12 12:30:03;;;;;;;0.75;0.70;;;;;;;;;;4981520;28;20065;-79
2022/04/12 12:32:31;;;;;;;1.73;1.00;;;;;;;;;;4980050;28;20046;-78
2022/04/12 12:35:06;;;;;;;0.90;0.80;;;;;;;;;;4996527;28;20041;-78
2022/04/12 12:37:34;;;;;;;0.88;0.88;;;;;;;;;;4990547;28;20133;-78
2022/04/12 12:40:02;;;;;;;0.73;0.68;;;;;;;;;;4998248;28;20034;-79
2022/04/12 12:42:37;;;;;;;3.33;0.80;;;;;;;;;;4990649;28;20050;-79
2022/04/12 12:45:11;;;;;;;1.25;0.85;;;;;;;;;;4996702;28;20105;-78
2022/04/12 12:47:42;;;;;;;0.70;0.70;;;;;;;;;;4991150;23;20045;-83
2022/04/12 12:50:14;;;;;;;1.30;1.02;;;;;;;;;;5003694;28;20065;-84
2022/04/12 12:52:43;;;;;;;1.17;0.98;;;;;;;;;;4996894;28;20044;-84
2022/04/12 12:55:23;;;;;;;0.57;0.55;;;;;;;;;;4984274;28;20065;-83
2022/04/12 12:58:08;;;;;;;1.65;1.08;;;;;;;;;;4984875;28;20058;-83
2022/04/12 13:00:36;;;;;;;1.27;0.70;;;;;;;;;;5003392;28;20525;-84
2022/04/12 13:03:06;;;;;;;0.47;0.47;;;;;;;;;;5005197;28;20398;-85
2022/04/12 13:05:34;;;;;;;0.70;0.70;;;;;;;;;;4972164;28;20042;-85
2022/04/12 13:08:36;;;;;;;1.33;0.90;;;;;;;;;;4923517;29;20055;-85
2022/04/12 13:11:04;;;;;;;0.88;0.70;;;;;;;;;;4907557;29;20076;-84
2022/04/12 13:13:31;;;;;;;1.10;0.80;;;;;;;;;;4908423;29;20040;-84
2022/04/12 13:16:03;;;;;;;1.08;0.90;;;;;;;;;;4936743;28;20045;-83
2022/04/12 13:18:30;;;;;;;0.70;0.70;;;;;;;;;;5004925;28;20129;-84
2022/04/12 13:20:57;;;;;;;1.13;1.02;;;;;;;;;;5004300;28;20041;-84
2022/04/12 13:23:25;;;;;;;2.72;0.90;;;;;;;;;;4970649;28;20169;-83
2022/04/12 13:25:52;;;;;;;0.95;0.95;;;;;;;;;;4986336;28;20046;-83
2022/04/12 13:28:38;;;;;;;1.75;1.08;;;;;;;;;;5006130;28;20152;-83
2022/04/12 13:31:07;;;;;;;3.55;1.33;;;;;;;;;;4987775;28;20510;-84
2022/04/12 13:33:35;;;;;;;1.35;1.20;;;;;;;;;;4987918;28;20050;-84
2022/04/12 13:36:03;;;;;;;1.40;1.05;;;;;;;;;;4985874;28;20252;-83
2022/04/12 13:38:30;;;;;;;1.08;0.98;;;;;;;;;;5000030;28;20049;-84
2022/04/12 13:40:57;;;;;;;1.70;1.05;;;;;;;;;;4988600;28;20429;-84
2022/04/12 13:43:25;;;;;;;2.60;1.10;;;;;;;;;;5007917;28;21383;-83
2022/04/12 13:45:53;;;;;;;1.80;1.20;;;;;;;;;;5011295;28;20073;-83
2022/04/12 13:48:21;;;;;;;1.00;1.00;;;;;;;;;;4975834;28;20050;-83
2022/04/12 13:50:55;;;;;;;1.55;1.20;;;;;;;;;;5009202;28;20049;-84
2022/04/12 13:53:24;;;;;;;1.35;1.08;;;;;;;;;;4996231;28;20034;-86
2022/04/12 13:55:51;;;;;;;1.75;1.17;;;;;;;;;;5007753;28;20042;-84
2022/04/12 13:58:18;;;;;;;1.40;1.17;;;;;;;;;;4987786;28;20670;-84
2022/04/12 14:00:45;;;;;;;1.73;1.10;;;;;;;;;;5007216;28;20145;-82
2022/04/12 14:03:14;;;;;;;2.05;1.10;;;;;;;;;;5012441;28;20081;-83
2022/04/12 14:05:41;;;;;;;1.27;0.90;;;;;;;;;;5030643;28;20046;-83
2022/04/12 14:08:10;;;;;;;2.50;1.10;;;;;;;;;;5027740;28;20045;-84
2022/04/12 14:10:38;;;;;;;1.35;1.17;;;;;;;;;;4998242;28;20042;-81
2022/04/12 14:13:08;;;;;;;2.00;1.10;;;;;;;;;;5004168;28;20168;-85
2022/04/12 14:15:36;;;;;;;1.00;0.93;;;;;;;;;;5008249;28;20887;-83
2022/04/12 14:18:03;;;;;;;2.15;1.20;;;;;;;;;;5007609;28;20045;-81
2022/04/12 14:20:35;;;;;;;2.42;0.93;;;;;;;;;;4993505;28;20096;-83
2022/04/12 14:23:03;;;;;;;1.40;0.90;;;;;;;;;;4996026;28;20050;-83
2022/04/12 14:25:31;;;;;;;1.02;0.95;;;;;;;;;;5007325;28;20064;-84
2022/04/12 14:27:58;;;;;;;2.03;1.10;;;;;;;;;;4990200;28;20056;-84
2022/04/12 14:30:26;;;;;;;0.80;0.80;;;;;;;;;;5010014;28;20038;-84
2022/04/12 14:32:56;;;;;;;1.23;1.13;;;;;;;;;;4997665;28;20472;-84
2022/04/12 14:35:24;;;;;;;1.38;1.13;;;;;;;;;;5013040;28;20061;-84
2022/04/12 14:37:54;;;;;;;0.82;0.70;;;;;;;;;;4993996;28;20033;-82
2022/04/12 14:40:22;;;;;;;1.27;0.90;;;;;;;;;;4995953;28;20054;-81
2022/04/12 14:42:49;;;;;;;1.10;1.00;;;;;;;;;;5005653;28;20042;-82
2022/04/12 14:45:22;;;;;;;1.00;0.98;;;;;;;;;;5028790;28;20033;-83
2022/04/12 14:47:50;;;;;;;1.30;1.10;;;;;;;;;;5040173;28;20071;-83
2022/04/12 14:50:18;;;;;;;2.95;0.93;;;;;;;;;;5018546;28;20050;-80
2022/04/12 14:52:45;;;;;;;1.27;1.02;;;;;;;;;;4967281;28;20081;-82
2022/04/12 14:55:13;;;;;;;2.25;1.08;;;;;;;;;;4998846;28;20050;-82
2022/04/12 14:57:41;;;;;;;1.70;1.60;;;;;;;;;;5019934;28;20104;-83